createdAt,value
2023-05-15T00:01:17.632Z,10.20
2023-05-15T00:03:50.219Z,10.30
2023-05-15T00:06:23.166Z,10.30
2023-05-15T00:08:55.651Z,10.30
2023-05-15T00:11:28.030Z,10.20
2023-05-15T00:14:00.066Z,10.30
2023-05-15T00:16:32.320Z,10.20
2023-05-15T00:19:04.678Z,10.20
2023-05-15T00:21:37.186Z,10.20
2023-05-15T00:24:09.192Z,10.20
2023-05-15T00:26:41.274Z,10.20
2023-05-15T00:29:13.579Z,10.20
2023-05-15T00:31:45.793Z,10.20
2023-05-15T00:34:17.947Z,10.10
2023-05-15T00:36:50.030Z,10.10
2023-05-15T00:39:22.189Z,10.20
2023-05-15T00:41:54.996Z,10.20
2023-05-15T00:44:28.592Z,10.10
2023-05-15T00:47:03.873Z,10.20
2023-05-15T00:49:37.903Z,10.20
2023-05-15T00:52:10.966Z,10.30
2023-05-15T00:54:43.088Z,10.30
2023-05-15T00:57:16.063Z,10.30
2023-05-15T00:59:52.084Z,10.30
2023-05-15T01:02:25.143Z,10.30
2023-05-15T01:04:57.578Z,10.30
2023-05-15T01:07:34.943Z,10.30
2023-05-15T01:10:12.618Z,10.30
2023-05-15T01:12:47.353Z,10.30
2023-05-15T01:15:21.606Z,10.30
2023-05-15T01:17:54.485Z,10.30
2023-05-15T01:20:27.503Z,10.30
2023-05-15T01:23:15.727Z,10.30
2023-05-15T01:26:03.663Z,10.30
2023-05-15T01:29:03.555Z,10.30
2023-05-15T01:31:46.284Z,10.30
2023-05-15T01:34:27.365Z,10.30
2023-05-15T01:37:13.080Z,10.30
2023-05-15T01:39:51.988Z,10.30
2023-05-15T01:42:33.329Z,10.30
2023-05-15T01:45:11.394Z,10.30
2023-05-15T01:47:46.302Z,10.30
2023-05-15T01:50:20.516Z,10.30
2023-05-15T01:52:56.527Z,10.30
2023-05-15T01:55:30.531Z,10.30
2023-05-15T01:58:04.561Z,10.30
2023-05-15T02:00:39.141Z,10.30
2023-05-15T02:03:12.618Z,10.30
2023-05-15T02:05:46.852Z,10.20
2023-05-15T02:08:21.709Z,10.20
2023-05-15T02:10:55.697Z,10.20
2023-05-15T02:13:31.976Z,10.10
2023-05-15T02:16:05.020Z,10.10
2023-05-15T02:18:38.180Z,10.10
2023-05-15T02:21:10.568Z,10.00
2023-05-15T02:23:42.682Z,10.00
2023-05-15T02:26:31.024Z,10.00
2023-05-15T02:29:40.535Z,10.00
2023-05-15T02:32:41.545Z,10.00
2023-05-15T02:35:36.104Z,10.00
2023-05-15T02:38:25.260Z,10.00
2023-05-15T02:41:02.402Z,10.00
2023-05-15T02:43:37.245Z,10.00
2023-05-15T02:46:11.902Z,10.00
2023-05-15T02:48:44.658Z,10.10
2023-05-15T02:51:17.124Z,10.10
2023-05-15T02:53:49.767Z,10.10
2023-05-15T02:56:22.900Z,10.10
2023-05-15T02:58:55.155Z,10.20
2023-05-15T03:01:27.431Z,10.20
2023-05-15T03:03:59.557Z,10.20
2023-05-15T03:06:31.931Z,10.20
2023-05-15T03:09:04.118Z,10.20
2023-05-15T03:11:36.247Z,10.30
2023-05-15T03:14:08.311Z,10.30
2023-05-15T03:16:40.417Z,10.40
2023-05-15T03:19:12.650Z,10.40
2023-05-15T03:21:44.720Z,10.40
2023-05-15T03:24:17.213Z,10.50
2023-05-15T03:26:49.367Z,10.50
2023-05-15T03:29:21.440Z,10.50
2023-05-15T03:31:53.462Z,10.60
2023-05-15T03:34:25.536Z,10.60
2023-05-15T03:36:57.691Z,10.60
2023-05-15T03:39:29.705Z,10.60
2023-05-15T03:42:01.638Z,10.70
2023-05-15T03:44:33.770Z,10.70
2023-05-15T03:47:06.248Z,10.70
2023-05-15T03:49:38.244Z,10.80
2023-05-15T03:52:10.588Z,10.70
2023-05-15T03:54:43.025Z,10.80
2023-05-15T03:57:15.187Z,10.80
2023-05-15T03:59:47.237Z,10.80
2023-05-15T04:02:19.306Z,10.80
2023-05-15T04:04:51.671Z,10.80
2023-05-15T04:07:24.053Z,10.80
2023-05-15T04:09:56.110Z,10.90
2023-05-15T04:12:35.528Z,10.90
2023-05-15T04:15:23.058Z,10.90
2023-05-15T04:17:56.292Z,11.00
2023-05-15T04:20:28.443Z,11.00
2023-05-15T04:23:00.600Z,11.10
2023-05-15T04:25:33.549Z,11.10
2023-05-15T04:28:06.596Z,11.10
2023-05-15T04:30:38.627Z,11.20
2023-05-15T04:33:11.272Z,11.20
2023-05-15T04:35:43.620Z,11.20
2023-05-15T04:38:16.184Z,11.30
2023-05-15T04:40:48.504Z,11.30
2023-05-15T04:43:20.899Z,11.30
2023-05-15T04:45:53.049Z,11.40
2023-05-15T04:48:25.597Z,11.40
2023-05-15T04:50:57.722Z,11.50
2023-05-15T04:53:29.776Z,11.50
2023-05-15T04:56:02.031Z,11.50
2023-05-15T04:58:34.212Z,11.60
2023-05-15T05:01:06.367Z,11.60
2023-05-15T05:03:38.677Z,11.60
2023-05-15T05:06:11.345Z,11.70
2023-05-15T05:08:43.434Z,11.80
2023-05-15T05:11:15.493Z,11.90
2023-05-15T05:13:47.845Z,12.00
2023-05-15T05:16:20.309Z,12.00
2023-05-15T05:18:52.465Z,12.10
2023-05-15T05:21:24.468Z,12.20
2023-05-15T05:23:56.604Z,12.30
2023-05-15T05:26:29.365Z,12.40
2023-05-15T05:29:01.580Z,12.50
2023-05-15T05:31:33.767Z,12.50
2023-05-15T05:34:06.582Z,12.60
2023-05-15T05:36:40.195Z,12.70
2023-05-15T05:39:12.447Z,12.70
2023-05-15T05:41:45.289Z,12.80
2023-05-15T05:44:17.480Z,12.80
2023-05-15T05:46:49.759Z,12.90
2023-05-15T05:49:25.258Z,12.90
2023-05-15T05:51:57.802Z,13.00
2023-05-15T05:54:38.658Z,13.10
2023-05-15T05:57:11.166Z,13.30
2023-05-15T05:59:43.656Z,13.50
2023-05-15T06:02:17.774Z,13.70
2023-05-15T06:04:54.095Z,13.90
2023-05-15T06:07:31.350Z,14.20
2023-05-15T06:10:07.636Z,14.50
2023-05-15T06:12:44.759Z,14.80
2023-05-15T06:15:17.728Z,15.10
2023-05-15T06:17:51.231Z,15.60
2023-05-15T06:20:25.493Z,16.10
2023-05-15T06:22:59.371Z,16.50
2023-05-15T06:25:34.001Z,17.10
2023-05-15T06:28:06.786Z,17.40
2023-05-15T06:30:39.305Z,17.70
2023-05-15T06:33:12.468Z,18.20
2023-05-15T06:35:49.200Z,18.30
2023-05-15T06:38:21.570Z,18.50
2023-05-15T06:40:58.662Z,18.90
2023-05-15T06:43:33.228Z,19.20
2023-05-15T06:46:06.767Z,19.50
2023-05-15T06:48:38.929Z,19.90
2023-05-15T06:51:11.476Z,20.20
2023-05-15T06:53:44.353Z,20.70
2023-05-15T06:56:17.022Z,20.90
2023-05-15T06:58:49.258Z,20.80
2023-05-15T07:01:23.057Z,20.90
2023-05-15T07:03:57.308Z,21.10
2023-05-15T07:06:36.333Z,21.50
2023-05-15T07:09:11.184Z,21.70
2023-05-15T07:11:46.660Z,21.60
2023-05-15T07:14:19.545Z,21.80
2023-05-15T07:16:52.303Z,21.80
2023-05-15T07:19:24.648Z,22.00
2023-05-15T07:21:57.847Z,22.20
2023-05-15T07:24:30.082Z,22.40
2023-05-15T07:27:02.549Z,22.60
2023-05-15T07:29:34.749Z,22.50
2023-05-15T07:32:07.480Z,22.60
2023-05-15T07:34:40.432Z,22.80
2023-05-15T07:37:14.898Z,22.80
2023-05-15T07:39:49.500Z,22.80
2023-05-15T07:42:23.090Z,22.90
2023-05-15T07:44:56.093Z,23.00
2023-05-15T07:47:28.548Z,23.10
2023-05-15T07:50:02.905Z,23.30
2023-05-15T07:52:38.861Z,23.30
2023-05-15T07:55:12.440Z,23.30
2023-05-15T08:00:25.179Z,23.80
2023-05-15T08:02:59.093Z,23.90
2023-05-15T08:05:31.436Z,23.50
2023-05-15T08:08:03.843Z,22.80
2023-05-15T08:10:36.034Z,22.00
2023-05-15T08:13:08.272Z,21.80
2023-05-15T08:15:40.446Z,22.00
2023-05-15T08:18:12.653Z,22.50
2023-05-15T08:20:44.707Z,23.00
2023-05-15T08:23:18.095Z,23.30
2023-05-15T08:25:50.944Z,23.40
2023-05-15T08:28:23.136Z,23.50
2023-05-15T08:30:58.826Z,23.30
2023-05-15T08:33:31.838Z,23.20
2023-05-15T08:36:04.519Z,23.30
2023-05-15T08:38:37.510Z,23.40
2023-05-15T08:41:41.259Z,23.30
2023-05-15T08:44:23.116Z,23.20
2023-05-15T08:46:56.776Z,23.00
2023-05-15T08:49:51.524Z,23.00
2023-05-15T08:52:29.877Z,22.70
2023-05-15T08:55:05.982Z,22.60
2023-05-15T08:57:39.456Z,22.40
2023-05-15T09:00:14.996Z,22.10
2023-05-15T09:02:48.846Z,21.50
2023-05-15T09:05:22.130Z,21.20
2023-05-15T09:07:55.814Z,21.10
2023-05-15T09:10:31.043Z,21.20
2023-05-15T09:13:06.181Z,21.20
2023-05-15T09:15:41.253Z,21.20
2023-05-15T09:18:14.992Z,21.10
2023-05-15T09:20:49.228Z,21.00
2023-05-15T09:23:24.991Z,20.90
2023-05-15T09:25:59.134Z,20.80
2023-05-15T09:28:32.917Z,20.80
2023-05-15T09:31:06.029Z,20.70
2023-05-15T09:33:41.614Z,20.70
2023-05-15T09:36:22.127Z,20.80
2023-05-15T09:38:59.700Z,20.80
2023-05-15T09:41:32.256Z,20.90
2023-05-15T09:44:05.342Z,20.90
2023-05-15T09:46:51.522Z,20.80
2023-05-15T09:49:24.257Z,20.60
2023-05-15T09:52:00.264Z,20.60
2023-05-15T09:54:32.975Z,20.50
2023-05-15T09:57:14.288Z,20.50
2023-05-15T09:59:49.165Z,20.50
2023-05-15T13:11:45.136Z,20.80
2023-05-15T13:14:18.266Z,20.70
2023-05-15T13:16:51.444Z,20.60
2023-05-15T13:19:23.896Z,20.50
2023-05-15T13:21:56.450Z,20.50
2023-05-15T13:24:29.549Z,20.70
2023-05-15T13:27:02.171Z,20.90
2023-05-15T13:29:35.073Z,20.90
2023-05-15T13:32:07.621Z,20.80
2023-05-15T13:34:39.664Z,20.70
2023-05-15T13:37:12.307Z,20.60
2023-05-15T13:39:46.350Z,20.50
2023-05-15T13:42:18.816Z,20.40
2023-05-15T13:44:51.028Z,20.30
2023-05-15T13:47:23.293Z,20.30
2023-05-15T13:49:55.725Z,20.20
2023-05-15T13:52:28.189Z,20.10
2023-05-15T13:55:00.341Z,20.10
2023-05-15T13:57:33.071Z,20.00
2023-05-15T14:00:12.334Z,19.90
2023-05-15T14:02:46.419Z,19.80
2023-05-15T14:05:19.293Z,19.70
2023-05-15T14:07:51.418Z,19.60
2023-05-15T14:10:26.736Z,19.40
2023-05-15T14:13:01.003Z,19.30
2023-05-15T14:15:33.643Z,19.20
2023-05-15T14:18:06.445Z,19.20
2023-05-15T14:20:39.279Z,19.20
2023-05-15T14:23:11.659Z,19.20
2023-05-15T14:25:44.058Z,19.40
2023-05-15T14:28:18.096Z,19.50
2023-05-15T14:30:53.445Z,19.50
2023-05-15T14:33:26.735Z,19.60
2023-05-15T14:35:59.484Z,19.70
2023-05-15T14:38:33.136Z,19.80
2023-05-15T14:41:06.139Z,20.00
2023-05-15T14:43:38.979Z,20.10
2023-05-15T14:46:11.679Z,20.40
2023-05-15T14:48:48.819Z,20.80
2023-05-15T14:51:24.672Z,21.20
2023-05-15T14:54:02.198Z,21.10
2023-05-15T14:56:39.578Z,20.70
2023-05-15T14:59:14.877Z,20.20
2023-05-15T15:01:49.631Z,19.80
2023-05-15T15:04:26.668Z,19.50
2023-05-15T15:07:09.145Z,19.20
2023-05-15T15:09:42.671Z,19.10
2023-05-15T15:12:18.200Z,18.90
2023-05-15T15:14:52.669Z,18.60
2023-05-15T15:17:29.070Z,18.40
2023-05-15T15:20:05.661Z,18.30
2023-05-15T15:22:42.320Z,18.20
2023-05-15T15:25:14.900Z,18.20
2023-05-15T15:27:49.662Z,18.10
2023-05-15T15:30:22.217Z,18.00
2023-05-15T15:32:55.915Z,17.80
2023-05-15T15:35:28.825Z,17.70
2023-05-15T15:38:01.636Z,17.60
2023-05-15T15:40:36.407Z,17.40
2023-05-15T15:43:08.911Z,17.20
2023-05-15T15:45:42.127Z,17.00
2023-05-15T15:48:15.110Z,16.70
2023-05-15T15:50:49.088Z,16.50
2023-05-15T15:53:23.249Z,16.30
2023-05-15T15:55:56.727Z,16.20
2023-05-15T15:58:30.247Z,16.20
2023-05-15T16:01:03.185Z,16.10
2023-05-15T16:03:35.939Z,16.10
2023-05-15T16:06:08.451Z,16.10
2023-05-15T16:08:41.524Z,16.00
2023-05-15T16:11:13.908Z,16.10
2023-05-15T16:13:47.737Z,16.10
2023-05-15T16:16:20.721Z,15.90
2023-05-15T16:18:53.080Z,15.80
2023-05-15T16:21:25.569Z,15.60
2023-05-15T16:23:58.299Z,15.50
2023-05-15T16:26:30.931Z,15.40
2023-05-15T16:29:03.914Z,15.30
2023-05-15T16:31:36.737Z,15.20
2023-05-15T16:34:09.728Z,15.10
2023-05-15T16:36:42.511Z,15.10
2023-05-15T16:39:15.766Z,15.00
2023-05-15T16:41:48.476Z,15.00
2023-05-15T16:44:20.688Z,15.00
2023-05-15T16:46:53.591Z,15.10
2023-05-15T16:49:26.778Z,15.20
2023-05-15T16:51:59.582Z,15.30
2023-05-15T16:54:32.144Z,15.30
2023-05-15T16:57:05.047Z,15.40
2023-05-15T16:59:38.009Z,15.40
2023-05-15T17:02:10.333Z,15.40
2023-05-15T17:04:43.435Z,15.50
2023-05-15T17:07:18.195Z,15.60
2023-05-15T17:09:51.011Z,15.70
2023-05-15T17:12:24.410Z,15.80
2023-05-15T17:14:57.107Z,15.90
2023-05-15T17:17:30.248Z,15.90
2023-05-15T17:20:06.672Z,15.90
2023-05-15T17:22:40.126Z,16.00
2023-05-15T17:25:13.106Z,15.90
2023-05-15T17:27:46.118Z,15.90
2023-05-15T17:30:19.369Z,16.00
2023-05-15T17:32:52.791Z,16.00
2023-05-15T17:35:26.735Z,15.90
2023-05-15T17:38:00.847Z,15.90
2023-05-15T17:40:34.298Z,15.90
2023-05-15T17:43:10.245Z,15.80
2023-05-15T17:45:44.304Z,15.70
2023-05-15T17:48:18.978Z,15.60
2023-05-15T17:50:52.645Z,15.50
2023-05-15T17:53:25.439Z,15.50
2023-05-15T17:55:58.240Z,15.40
2023-05-15T17:58:32.327Z,15.40
2023-05-15T18:01:06.105Z,15.20
2023-05-15T18:03:41.678Z,15.20
2023-05-15T18:06:14.751Z,15.10
2023-05-15T18:08:50.588Z,15.00
2023-05-15T18:11:23.604Z,14.90
2023-05-15T18:13:57.064Z,14.90
2023-05-15T18:16:31.380Z,14.80
2023-05-15T18:19:04.352Z,14.80
2023-05-15T18:21:38.166Z,14.70
2023-05-15T18:24:10.832Z,14.70
2023-05-15T18:26:48.728Z,14.70
2023-05-15T18:29:21.450Z,14.70
2023-05-15T18:31:54.970Z,14.70
2023-05-15T18:34:28.757Z,14.60
2023-05-15T18:37:01.957Z,14.60
2023-05-15T18:39:38.688Z,14.60
2023-05-15T18:42:12.951Z,14.60
2023-05-15T18:44:46.107Z,14.50
2023-05-15T18:47:22.085Z,14.50
2023-05-15T18:49:55.565Z,14.50
2023-05-15T18:52:29.910Z,14.40
2023-05-15T18:55:03.119Z,14.40
2023-05-15T18:57:36.863Z,14.40
2023-05-15T19:00:10.904Z,14.30
2023-05-15T19:02:45.810Z,14.30
2023-05-15T19:05:19.776Z,14.20
2023-05-15T19:07:53.440Z,14.20
2023-05-15T19:10:31.030Z,14.20
2023-05-15T19:13:04.624Z,14.10
2023-05-15T19:15:38.040Z,14.20
2023-05-15T19:18:12.175Z,14.10
2023-05-15T19:20:47.054Z,14.10
2023-05-15T19:23:25.393Z,14.10
2023-05-15T19:25:58.951Z,14.10
2023-05-15T19:28:32.110Z,14.10
2023-05-15T19:31:06.263Z,14.00
2023-05-15T19:33:41.923Z,14.00
2023-05-15T19:36:15.626Z,14.00
2023-05-15T19:38:50.261Z,14.00
2023-05-15T19:41:24.075Z,14.00
2023-05-15T19:43:58.501Z,14.00
2023-05-15T19:46:32.950Z,13.90
2023-05-15T19:49:06.337Z,13.90
2023-05-15T19:51:42.555Z,13.90
2023-05-15T19:54:17.080Z,13.90
2023-05-15T19:56:50.129Z,13.80
2023-05-15T19:59:26.040Z,13.80
2023-05-15T20:02:00.586Z,13.80
2023-05-15T20:04:35.320Z,13.80
2023-05-15T20:07:08.880Z,13.80
2023-05-15T20:09:41.989Z,13.70
2023-05-15T20:12:14.436Z,13.80
2023-05-15T20:14:50.937Z,13.70
2023-05-15T20:17:25.962Z,13.70
2023-05-15T20:19:59.515Z,13.70
2023-05-15T20:22:33.445Z,13.60
2023-05-15T20:25:06.794Z,13.60
2023-05-15T20:27:40.673Z,13.60
2023-05-15T20:30:13.809Z,13.50
2023-05-15T20:32:47.028Z,13.40
2023-05-15T20:35:20.998Z,13.40
2023-05-15T20:37:56.544Z,13.40
2023-05-15T20:40:29.361Z,13.30
2023-05-15T20:43:02.277Z,13.30
2023-05-15T20:45:34.490Z,13.30
2023-05-15T20:48:08.632Z,13.30
2023-05-15T20:50:43.116Z,13.20
2023-05-15T20:53:15.649Z,13.20
2023-05-15T20:55:48.610Z,13.20
2023-05-15T20:58:20.848Z,13.20
2023-05-15T21:00:53.233Z,13.20
2023-05-15T21:03:25.572Z,13.20
2023-05-15T21:05:58.355Z,13.20
2023-05-15T21:08:31.536Z,13.10
2023-05-15T21:11:04.182Z,13.20
2023-05-15T21:13:36.969Z,13.10
2023-05-15T21:16:09.622Z,13.10
2023-05-15T21:18:43.762Z,13.10
2023-05-15T21:21:21.578Z,13.00
2023-05-15T21:23:59.256Z,13.00
2023-05-15T21:26:33.857Z,12.90
2023-05-15T21:29:07.126Z,12.90
2023-05-15T21:31:43.950Z,12.90
2023-05-15T21:34:18.770Z,12.90
2023-05-15T21:36:52.227Z,12.80
2023-05-15T21:39:25.411Z,12.80
2023-05-15T21:41:58.307Z,12.80
2023-05-15T21:44:30.917Z,12.90
2023-05-15T21:47:03.349Z,12.80
2023-05-15T21:49:36.889Z,12.80
2023-05-15T21:52:09.369Z,12.80
2023-05-15T21:54:44.066Z,12.70
2023-05-15T21:57:16.444Z,12.70
2023-05-15T21:59:48.900Z,12.70
2023-05-15T22:02:21.192Z,12.60
2023-05-15T22:04:53.706Z,12.60
2023-05-15T22:07:26.471Z,12.60
2023-05-15T22:09:59.105Z,12.60
2023-05-15T22:12:33.240Z,12.60
2023-05-15T22:15:06.209Z,12.60
2023-05-15T22:17:39.369Z,12.60
2023-05-15T22:20:13.843Z,12.50
2023-05-15T22:22:49.045Z,12.50
2023-05-15T22:25:21.691Z,12.50
2023-05-15T22:27:53.896Z,12.50
2023-05-15T22:30:26.292Z,12.50
2023-05-15T22:32:58.945Z,12.50
2023-05-15T22:35:31.177Z,12.50
2023-05-15T22:38:05.723Z,12.50
2023-05-15T22:40:38.315Z,12.50
2023-05-15T22:43:10.647Z,12.60
2023-05-15T22:45:42.818Z,12.50
2023-05-15T22:48:15.486Z,12.50
2023-05-15T22:50:47.725Z,12.50
2023-05-15T22:53:20.004Z,12.50
2023-05-15T22:55:52.362Z,12.50
2023-05-15T22:58:24.773Z,12.60
2023-05-15T23:00:57.061Z,12.60
2023-05-15T23:03:29.143Z,12.50
2023-05-15T23:06:01.332Z,12.50
2023-05-15T23:08:33.419Z,12.50
2023-05-15T23:11:05.633Z,12.50
2023-05-15T23:13:37.634Z,12.50
2023-05-15T23:16:09.932Z,12.50
2023-05-15T23:18:42.196Z,12.50
2023-05-15T23:21:14.342Z,12.40
2023-05-15T23:23:47.004Z,12.40
2023-05-15T23:26:19.177Z,12.40
2023-05-15T23:28:51.617Z,12.40
2023-05-15T23:31:23.691Z,12.40
2023-05-15T23:33:56.029Z,12.30
2023-05-15T23:36:28.143Z,12.30
2023-05-15T23:39:00.181Z,12.20
2023-05-15T23:41:32.202Z,12.10
2023-05-15T23:44:04.470Z,12.10
2023-05-15T23:46:38.116Z,12.10
2023-05-15T23:49:10.396Z,12.00
2023-05-15T23:51:43.706Z,11.90
2023-05-15T23:54:15.792Z,11.90
2023-05-15T23:56:47.755Z,11.90
2023-05-15T23:59:19.792Z,11.90
